Time;durP1;ratioP1;P1;durP2;ratioP2;P2;SDS_P1;SDS_P2;PMS_P1;PMS_P2;Temp;Humidity;BMP_temperature;BMP_pressure;BME280_temperature;BME280_humidity;BME280_pressure;Samples;Min_cycle;Max_cycle;Signal;HPM_P1;HPM_P2
2023/06/07 00:02:13;;;;;;;;;;;;;;;;;;5061253;28;19952;-62
2023/06/07 00:04:40;;;;;;;;;;;;;;;;;;5062249;28;19924;-61
2023/06/07 00:07:07;;;;;;;;;;;;;;;;;;5063191;28;19924;-62
2023/06/07 00:09:34;;;;;;;;;;;;;;;;;;5060281;28;20595;-61
2023/06/07 00:12:01;;;;;;;;;;;;;;;;;;5060957;28;19924;-62
2023/06/07 00:14:27;;;;;;;;;;;;;;;;;;5064862;28;20323;-62
2023/06/07 00:16:55;;;;;;;;;;;;;;;;;;5061614;28;20407;-62
2023/06/07 00:19:25;;;;;;;;;;;;;;;;;;5060334;28;20335;-62
2023/06/07 00:21:51;;;;;;;;;;;;;;;;;;5061045;28;19925;-62
2023/06/07 00:24:19;;;;;;;;;;;;;;;;;;5060664;28;19928;-62
2023/06/07 00:26:46;;;;;;;;;;;;;;;;;;5060422;28;20023;-62
2023/06/07 00:29:13;;;;;;;;;;;;;;;;;;5064211;28;20006;-62
2023/06/07 00:31:40;;;;;;;;;;;;;;;;;;5062978;28;19931;-62
2023/06/07 00:34:07;;;;;;;;;;;;;;;;;;5064443;28;19924;-62
2023/06/07 00:36:34;;;;;;;;;;;;;;;;;;5061737;28;19942;-61
2023/06/07 00:39:02;;;;;;;;;;;;;;;;;;5051725;28;19928;-62
2023/06/07 00:41:29;;;;;;;;;;;;;;;;;;5053819;28;19925;-62
2023/06/07 00:43:56;;;;;;;;;;;;;;;;;;5060273;28;20377;-61
2023/06/07 00:46:23;;;;;;;;;;;;;;;;;;5061777;28;19924;-62
2023/06/07 00:48:49;;;;;;;;;;;;;;;;;;5062517;28;19954;-62
2023/06/07 00:51:16;;;;;;;;;;;;;;;;;;5059875;28;19979;-62
2023/06/07 00:53:43;;;;;;;;;;;;;;;;;;5062303;28;20003;-62
2023/06/07 00:56:10;;;;;;;;;;;;;;;;;;5065574;28;19928;-62
2023/06/07 00:58:38;;;;;;;;;;;;;;;;;;5065572;28;19929;-62
2023/06/07 01:01:05;;;;;;;;;;;;;;;;;;5066952;28;20007;-63
2023/06/07 01:03:34;;;;;;;;;;;;;;;;;;5066662;28;19925;-63
2023/06/07 01:06:03;;;;;;;;;;;;;;;;;;5067176;28;19954;-63
2023/06/07 01:08:30;;;;;;;;;;;;;;;;;;5063750;28;20015;-62
2023/06/07 01:10:56;;;;;;;;;;;;;;;;;;5065891;28;19924;-62
2023/06/07 01:13:24;;;;;;;;;;;;;;;;;;5065016;28;20282;-62
2023/06/07 01:15:51;;;;;;;;;;;;;;;;;;5064816;28;19978;-63
2023/06/07 01:18:18;;;;;;;;;;;;;;;;;;5066094;28;20293;-63
2023/06/07 01:20:45;;;;;;;;;;;;;;;;;;5063536;28;20023;-62
2023/06/07 01:23:12;;;;;;;;;;;;;;;;;;5063792;28;19925;-62
2023/06/07 01:25:39;;;;;;;;;;;;;;;;;;5066304;28;20015;-61
2023/06/07 01:28:06;;;;;;;;;;;;;;;;;;5064802;28;19928;-62
2023/06/07 01:30:33;;;;;;;;;;;;;;;;;;5070546;28;19977;-62
2023/06/07 01:32:59;;;;;;;;;;;;;;;;;;5066933;28;19928;-62
2023/06/07 01:35:26;;;;;;;;;;;;;;;;;;5065332;28;19928;-62
2023/06/07 01:37:53;;;;;;;;;;;;;;;;;;5063326;28;20336;-62
2023/06/07 01:40:20;;;;;;;;;;;;;;;;;;5063708;28;20484;-61
2023/06/07 01:42:47;;;;;;;;;;;;;;;;;;5065713;28;19989;-61
2023/06/07 01:45:14;;;;;;;;;;;;;;;;;;5064166;28;20339;-61
2023/06/07 01:47:40;;;;;;;;;;;;;;;;;;5063245;28;20455;-62
2023/06/07 01:50:08;;;;;;;;;;;;;;;;;;5064150;28;19925;-61
2023/06/07 01:52:35;;;;;;;;;;;;;;;;;;5063842;28;20378;-61
2023/06/07 01:55:02;;;;;;;;;;;;;;;;;;5065498;28;20446;-62
2023/06/07 01:57:28;;;;;;;;;;;;;;;;;;5063395;28;20491;-61
2023/06/07 01:59:55;;;;;;;;;;;;;;;;;;5068628;28;19974;-62
2023/06/07 02:02:22;;;;;;;;;;;;;;;;;;5064989;28;19978;-62
2023/06/07 02:04:49;;;;;;;;;;;;;;;;;;5066213;28;19924;-61
2023/06/07 02:07:16;;;;;;;;;;;;;;;;;;5065383;28;20007;-61
2023/06/07 02:09:43;;;;;;;;;;;;;;;;;;5063037;28;19925;-62
2023/06/07 02:12:10;;;;;;;;;;;;;;;;;;5065578;28;19925;-62
2023/06/07 02:14:37;;;;;;;;;;;;;;;;;;5053671;28;19929;-62
2023/06/07 02:17:04;;;;;;;;;;;;;;;;;;5066231;28;19932;-62
2023/06/07 02:19:32;;;;;;;;;;;;;;;;;;5064689;28;19928;-62
2023/06/07 02:21:59;;;;;;;;;;;;;;;;;;5063385;28;20005;-61
2023/06/07 02:24:27;;;;;;;;;;;;;;;;;;5066317;28;19928;-61
2023/06/07 02:26:54;;;;;;;;;;;;;;;;;;5063074;28;20304;-61
2023/06/07 02:29:21;;;;;;;;;;;;;;;;;;5063116;28;19979;-62
2023/06/07 02:31:48;;;;;;;;;;;;;;;;;;5060592;28;19928;-61
2023/06/07 02:34:15;;;;;;;;;;;;;;;;;;5064272;28;19978;-62
2023/06/07 02:36:42;;;;;;;;;;;;;;;;;;5065576;28;19970;-62
2023/06/07 02:39:08;;;;;;;;;;;;;;;;;;5066783;28;19959;-61
2023/06/07 02:41:36;;;;;;;;;;;;;;;;;;5063679;28;19970;-62
2023/06/07 02:44:02;;;;;;;;;;;;;;;;;;5061707;28;19924;-61
2023/06/07 02:46:29;;;;;;;;;;;;;;;;;;5064857;28;19928;-61
2023/06/07 02:48:56;;;;;;;;;;;;;;;;;;5061510;28;19928;-61
2023/06/07 02:51:23;;;;;;;;;;;;;;;;;;5063448;28;19924;-61
2023/06/07 02:53:50;;;;;;;;;;;;;;;;;;5063946;28;19929;-61
2023/06/07 02:56:17;;;;;;;;;;;;;;;;;;5061533;28;20447;-62
2023/06/07 02:58:44;;;;;;;;;;;;;;;;;;5065099;28;19950;-62
2023/06/07 03:01:11;;;;;;;;;;;;;;;;;;5066774;28;20373;-62
2023/06/07 03:03:38;;;;;;;;;;;;;;;;;;5065025;28;20331;-61
2023/06/07 03:06:07;;;;;;;;;;;;;;;;;;5061279;28;20447;-62
2023/06/07 03:08:34;;;;;;;;;;;;;;;;;;5061626;28;19970;-61
2023/06/07 03:11:01;;;;;;;;;;;;;;;;;;5062866;28;19925;-61
2023/06/07 03:13:28;;;;;;;;;;;;;;;;;;5061550;28;19925;-61
2023/06/07 03:15:55;;;;;;;;;;;;;;;;;;5063110;28;19924;-61
2023/06/07 03:18:23;;;;;;;;;;;;;;;;;;5060814;28;19971;-61
2023/06/07 03:20:49;;;;;;;;;;;;;;;;;;5064656;28;19925;-61
2023/06/07 03:23:16;;;;;;;;;;;;;;;;;;5065808;28;19971;-61
2023/06/07 03:25:43;;;;;;;;;;;;;;;;;;5065484;28;19979;-61
2023/06/07 03:28:10;;;;;;;;;;;;;;;;;;5063430;28;19986;-61
2023/06/07 03:30:37;;;;;;;;;;;;;;;;;;5068829;28;19928;-62
2023/06/07 03:33:04;;;;;;;;;;;;;;;;;;5067464;28;20511;-61
2023/06/07 03:35:31;;;;;;;;;;;;;;;;;;5064855;28;20379;-61
2023/06/07 03:37:58;;;;;;;;;;;;;;;;;;5065560;28;19925;-61
2023/06/07 03:40:25;;;;;;;;;;;;;;;;;;5066252;28;19987;-61
2023/06/07 03:42:52;;;;;;;;;;;;;;;;;;5068279;28;19924;-61
2023/06/07 03:45:18;;;;;;;;;;;;;;;;;;5070914;28;19924;-61
2023/06/07 03:47:45;;;;;;;;;;;;;;;;;;5067242;28;19933;-62
2023/06/07 03:50:13;;;;;;;;;;;;;;;;;;5062701;28;19974;-61
2023/06/07 03:52:40;;;;;;;;;;;;;;;;;;5063010;28;19925;-61
2023/06/07 03:55:07;;;;;;;;;;;;;;;;;;5062493;28;19936;-61
2023/06/07 03:57:34;;;;;;;;;;;;;;;;;;5065556;28;19980;-62
2023/06/07 04:00:01;;;;;;;;;;;;;;;;;;5069066;28;19924;-61
2023/06/07 04:02:29;;;;;;;;;;;;;;;;;;5068287;28;19986;-61
2023/06/07 04:04:56;;;;;;;;;;;;;;;;;;5063023;28;19975;-61
2023/06/07 04:07:23;;;;;;;;;;;;;;;;;;5065076;28;19947;-61
2023/06/07 04:09:50;;;;;;;;;;;;;;;;;;5060648;28;19933;-61
2023/06/07 04:12:17;;;;;;;;;;;;;;;;;;5063508;28;20404;-61
2023/06/07 04:14:44;;;;;;;;;;;;;;;;;;5065762;28;19924;-61
2023/06/07 04:17:11;;;;;;;;;;;;;;;;;;5063336;28;19925;-61
2023/06/07 04:19:37;;;;;;;;;;;;;;;;;;5061538;28;19925;-61
2023/06/07 04:22:05;;;;;;;;;;;;;;;;;;5063159;28;19928;-61
2023/06/07 04:24:32;;;;;;;;;;;;;;;;;;5064389;28;19982;-60
2023/06/07 04:27:01;;;;;;;;;;;;;;;;;;5060856;28;19929;-61
2023/06/07 04:29:27;;;;;;;;;;;;;;;;;;5065855;28;19925;-62
2023/06/07 04:31:56;;;;;;;;;;;;;;;;;;5068576;28;19936;-62
2023/06/07 04:34:23;;;;;;;;;;;;;;;;;;5066120;28;19925;-61
2023/06/07 04:36:50;;;;;;;;;;;;;;;;;;5066023;28;19964;-61
2023/06/07 04:39:18;;;;;;;;;;;;;;;;;;5067777;28;19949;-60
2023/06/07 04:41:45;;;;;;;;;;;;;;;;;;5068855;28;20389;-60
2023/06/07 04:44:12;;;;;;;;;;;;;;;;;;5066505;28;19924;-61
2023/06/07 04:46:40;;;;;;;;;;;;;;;;;;5066176;28;19924;-61
2023/06/07 04:49:07;;;;;;;;;;;;;;;;;;5063417;28;19928;-60
2023/06/07 04:51:35;;;;;;;;;;;;;;;;;;5065424;28;19932;-61
2023/06/07 04:54:04;;;;;;;;;;;;;;;;;;5067278;28;19928;-60
2023/06/07 04:56:31;;;;;;;;;;;;;;;;;;5064825;28;19924;-60
2023/06/07 04:58:58;;;;;;;;;;;;;;;;;;5067496;28;19925;-61
2023/06/07 05:01:25;;;;;;;;;;;;;;;;;;5065680;28;19932;-59
2023/06/07 05:03:52;;;;;;;;;;;;;;;;;;5067290;28;19928;-62
2023/06/07 05:06:19;;;;;;;;;;;;;;;;;;5064473;28;19970;-63
2023/06/07 05:08:46;;;;;;;;;;;;;;;;;;5068924;28;19931;-58
2023/06/07 05:11:13;;;;;;;;;;;;;;;;;;5065379;28;19928;-60
2023/06/07 05:13:40;;;;;;;;;;;;;;;;;;5061728;28;19928;-60
2023/06/07 05:16:11;;;;;;;;;;;;;;;;;;5065156;28;19929;-60
2023/06/07 05:18:39;;;;;;;;;;;;;;;;;;5064031;28;19970;-61
2023/06/07 05:21:06;;;;;;;;;;;;;;;;;;5065530;28;19925;-60
2023/06/07 05:23:33;;;;;;;;;;;;;;;;;;5068785;28;19925;-61
2023/06/07 05:25:59;;;;;;;;;;;;;;;;;;5064633;28;19928;-60
2023/06/07 05:28:26;;;;;;;;;;;;;;;;;;5065358;28;19928;-59
2023/06/07 05:30:55;;;;;;;;;;;;;;;;;;5063278;28;19970;-59
2023/06/07 05:33:22;;;;;;;;;;;;;;;;;;5067173;28;19960;-60
2023/06/07 05:35:49;;;;;;;;;;;;;;;;;;5065809;28;19929;-58
2023/06/07 05:38:16;;;;;;;;;;;;;;;;;;5064135;28;19929;-60
2023/06/07 05:40:43;;;;;;;;;;;;;;;;;;5064386;28;19925;-61
2023/06/07 05:43:10;;;;;;;;;;;;;;;;;;5064371;28;19925;-60
2023/06/07 05:45:37;;;;;;;;;;;;;;;;;;5063722;28;19929;-61
2023/06/07 05:48:03;;;;;;;;;;;;;;;;;;5060724;28;19924;-60
2023/06/07 05:50:30;;;;;;;;;;;;;;;;;;5067021;28;19928;-59
2023/06/07 05:52:58;;;;;;;;;;;;;;;;;;5059158;28;19931;-60
2023/06/07 05:55:25;;;;;;;;;;;;;;;;;;5064524;28;20513;-60
2023/06/07 05:57:52;;;;;;;;;;;;;;;;;;5063467;28;19925;-60
2023/06/07 06:00:18;;;;;;;;;;;;;;;;;;5069027;28;20007;-60
2023/06/07 06:02:46;;;;;;;;;;;;;;;;;;5071685;28;19924;-55
2023/06/07 06:05:15;;;;;;;;;;;;;;;;;;5061402;28;20397;-61
2023/06/07 06:07:42;;;;;;;;;;;;;;;;;;5068526;28;20284;-61
2023/06/07 06:10:09;;;;;;;;;;;;;;;;;;5065295;28;20274;-62
2023/06/07 06:12:36;;;;;;;;;;;;;;;;;;5061296;28;19924;-62
2023/06/07 06:15:03;;;;;;;;;;;;;;;;;;5062746;28;19926;-60
2023/06/07 06:17:30;;;;;;;;;;;;;;;;;;5064183;28;20392;-59
2023/06/07 06:19:56;;;;;;;;;;;;;;;;;;5063163;28;19951;-59
2023/06/07 06:22:23;;;;;;;;;;;;;;;;;;5063247;28;19924;-59
2023/06/07 06:24:50;;;;;;;;;;;;;;;;;;5062508;28;19946;-60
2023/06/07 06:27:19;;;;;;;;;;;;;;;;;;5062021;28;19925;-59
2023/06/07 06:29:46;;;;;;;;;;;;;;;;;;5067622;28;19924;-60
2023/06/07 06:32:13;;;;;;;;;;;;;;;;;;5066376;28;19971;-57
2023/06/07 06:34:40;;;;;;;;;;;;;;;;;;5064094;28;19978;-55
2023/06/07 06:37:07;;;;;;;;;;;;;;;;;;5062695;28;20338;-62
2023/06/07 06:39:33;;;;;;;;;;;;;;;;;;5061481;28;20346;-60
2023/06/07 06:42:00;;;;;;;;;;;;;;;;;;5060341;28;20343;-56
2023/06/07 06:44:27;;;;;;;;;;;;;;;;;;5062345;28;19925;-60
2023/06/07 06:46:54;;;;;;;;;;;;;;;;;;5062504;28;19986;-59
2023/06/07 06:49:21;;;;;;;;;;;;;;;;;;5061858;28;20032;-59
2023/06/07 06:51:49;;;;;;;;;;;;;;;;;;5066019;28;19932;-59
2023/06/07 06:54:16;;;;;;;;;;;;;;;;;;5061145;28;19929;-59
2023/06/07 06:56:43;;;;;;;;;;;;;;;;;;5061407;28;19924;-59
2023/06/07 06:59:10;;;;;;;;;;;;;;;;;;5066173;28;19925;-61
2023/06/07 07:01:37;;;;;;;;;;;;;;;;;;5057903;28;20452;-61
2023/06/07 07:04:04;;;;;;;;;;;;;;;;;;5070396;28;20376;-63
2023/06/07 07:06:32;;;;;;;;;;;;;;;;;;5063763;28;20351;-61
2023/06/07 07:08:58;;;;;;;;;;;;;;;;;;5060609;28;20320;-61
2023/06/07 07:11:25;;;;;;;;;;;;;;;;;;5058437;28;20311;-60
2023/06/07 07:13:52;;;;;;;;;;;;;;;;;;5062471;28;19935;-59
2023/06/07 07:16:28;;;;;;;;;;;;;;;;;;5061232;28;19979;-62
2023/06/07 07:18:55;;;;;;;;;;;;;;;;;;5058018;28;19925;-60
2023/06/07 07:21:22;;;;;;;;;;;;;;;;;;5062218;28;19925;-58
2023/06/07 07:23:49;;;;;;;;;;;;;;;;;;5067578;28;19925;-62
2023/06/07 07:26:16;;;;;;;;;;;;;;;;;;5063681;28;19928;-62
2023/06/07 07:28:42;;;;;;;;;;;;;;;;;;5066679;28;19924;-62
2023/06/07 07:31:10;;;;;;;;;;;;;;;;;;5061979;28;19974;-62
2023/06/07 07:33:38;;;;;;;;;;;;;;;;;;5063960;28;20382;-61
2023/06/07 07:36:05;;;;;;;;;;;;;;;;;;5062186;28;20023;-56
2023/06/07 07:38:32;;;;;;;;;;;;;;;;;;5068717;28;19925;-59
2023/06/07 07:40:59;;;;;;;;;;;;;;;;;;5061695;28;19999;-59
2023/06/07 07:43:26;;;;;;;;;;;;;;;;;;5058504;28;19928;-62
2023/06/07 07:45:53;;;;;;;;;;;;;;;;;;5060636;28;19955;-61
2023/06/07 07:48:20;;;;;;;;;;;;;;;;;;5064318;28;19924;-62
2023/06/07 07:50:47;;;;;;;;;;;;;;;;;;5062540;28;20467;-62
2023/06/07 07:53:13;;;;;;;;;;;;;;;;;;5059255;28;20522;-60
2023/06/07 07:55:41;;;;;;;;;;;;;;;;;;5062301;28;19925;-62
2023/06/07 07:58:08;;;;;;;;;;;;;;;;;;5059270;28;20304;-62
2023/06/07 08:00:35;;;;;;;;;;;;;;;;;;5062485;28;20411;-62
2023/06/07 08:03:03;;;;;;;;;;;;;;;;;;5064930;28;19925;-62
2023/06/07 08:05:30;;;;;;;;;;;;;;;;;;5061263;28;19931;-62
2023/06/07 08:07:56;;;;;;;;;;;;;;;;;;5062543;28;19970;-59
2023/06/07 08:10:24;;;;;;;;;;;;;;;;;;5060728;28;19955;-61
2023/06/07 08:12:51;;;;;;;;;;;;;;;;;;5060260;28;19980;-61
2023/06/07 08:15:18;;;;;;;;;;;;;;;;;;5062590;28;19994;-60
2023/06/07 08:17:45;;;;;;;;;;;;;;;;;;5061213;28;19994;-61
2023/06/07 08:20:12;;;;;;;;;;;;;;;;;;5059014;28;20468;-59
2023/06/07 08:22:38;;;;;;;;;;;;;;;;;;5061764;28;19931;-61
2023/06/07 08:25:05;;;;;;;;;;;;;;;;;;5061788;28;19990;-62
2023/06/07 08:27:32;;;;;;;;;;;;;;;;;;5060939;28;19929;-62
2023/06/07 08:29:59;;;;;;;;;;;;;;;;;;5061885;28;19924;-61
2023/06/07 08:32:26;;;;;;;;;;;;;;;;;;5063600;28;19925;-61
2023/06/07 08:34:54;;;;;;;;;;;;;;;;;;5067851;28;19991;-61
2023/06/07 08:37:21;;;;;;;;;;;;;;;;;;5067880;28;19924;-61
2023/06/07 08:39:48;;;;;;;;;;;;;;;;;;5059973;28;19929;-61
2023/06/07 08:42:15;;;;;;;;;;;;;;;;;;5056439;28;19986;-61
2023/06/07 08:44:41;;;;;;;;;;;;;;;;;;5060645;28;20343;-62
2023/06/07 08:47:08;;;;;;;;;;;;;;;;;;5062714;28;20343;-62
2023/06/07 08:49:35;;;;;;;;;;;;;;;;;;5060649;28;20435;-61
2023/06/07 08:52:02;;;;;;;;;;;;;;;;;;5062384;28;19985;-61
2023/06/07 08:54:29;;;;;;;;;;;;;;;;;;5061410;28;20053;-61
2023/06/07 08:56:56;;;;;;;;;;;;;;;;;;5059370;28;19925;-61
2023/06/07 08:59:24;;;;;;;;;;;;;;;;;;5060488;28;19975;-62
2023/06/07 09:01:51;;;;;;;;;;;;;;;;;;5065662;28;20423;-61
2023/06/07 09:04:17;;;;;;;;;;;;;;;;;;5059258;28;19936;-63
2023/06/07 09:06:45;;;;;;;;;;;;;;;;;;5066068;28;19924;-61
2023/06/07 09:09:12;;;;;;;;;;;;;;;;;;5067604;28;19924;-61
2023/06/07 09:11:40;;;;;;;;;;;;;;;;;;5059976;28;19978;-61
2023/06/07 09:14:07;;;;;;;;;;;;;;;;;;5061988;28;19936;-61
2023/06/07 09:16:35;;;;;;;;;;;;;;;;;;5063160;28;19928;-60
2023/06/07 09:19:01;;;;;;;;;;;;;;;;;;5065699;28;20396;-60
2023/06/07 09:21:29;;;;;;;;;;;;;;;;;;5062087;28;19983;-60
2023/06/07 09:23:55;;;;;;;;;;;;;;;;;;5066856;28;19970;-61
2023/06/07 09:26:23;;;;;;;;;;;;;;;;;;5066702;28;19925;-63
2023/06/07 09:28:50;;;;;;;;;;;;;;;;;;5064679;28;19931;-63
2023/06/07 09:31:17;;;;;;;;;;;;;;;;;;5068011;28;20619;-55
2023/06/07 09:33:46;;;;;;;;;;;;;;;;;;5062554;28;20336;-59
2023/06/07 09:36:15;;;;;;;;;;;;;;;;;;5066853;28;20011;-60
2023/06/07 09:38:41;;;;;;;;;;;;;;;;;;5064622;28;19924;-61
2023/06/07 09:41:09;;;;;;;;;;;;;;;;;;5063250;28;19932;-59
2023/06/07 09:43:36;;;;;;;;;;;;;;;;;;5068966;28;20031;-58
2023/06/07 09:46:03;;;;;;;;;;;;;;;;;;5069719;28;19970;-54
2023/06/07 09:48:30;;;;;;;;;;;;;;;;;;5067775;28;19994;-57
2023/06/07 09:50:57;;;;;;;;;;;;;;;;;;5065952;28;19928;-60
2023/06/07 09:53:24;;;;;;;;;;;;;;;;;;5071322;28;19928;-59
2023/06/07 09:55:51;;;;;;;;;;;;;;;;;;5061797;28;19925;-60
2023/06/07 09:58:18;;;;;;;;;;;;;;;;;;5063522;28;19978;-62
2023/06/07 10:00:45;;;;;;;;;;;;;;;;;;5065922;28;19925;-60
2023/06/07 10:03:12;;;;;;;;;;;;;;;;;;5066603;28;19925;-60
2023/06/07 10:05:39;;;;;;;;;;;;;;;;;;5066478;28;20410;-62
2023/06/07 10:08:06;;;;;;;;;;;;;;;;;;5066886;28;19978;-63
2023/06/07 10:10:34;;;;;;;;;;;;;;;;;;5060838;28;19947;-62
2023/06/07 10:13:01;;;;;;;;;;;;;;;;;;5063846;28;19924;-60
2023/06/07 10:15:29;;;;;;;;;;;;;;;;;;5062590;28;19929;-60
2023/06/07 10:17:56;;;;;;;;;;;;;;;;;;5062649;28;19996;-61
2023/06/07 10:20:25;;;;;;;;;;;;;;;;;;5061251;28;19955;-58
2023/06/07 10:22:53;;;;;;;;;;;;;;;;;;5062033;28;19925;-61
2023/06/07 10:25:20;;;;;;;;;;;;;;;;;;5064275;28;19978;-58
2023/06/07 10:27:47;;;;;;;;;;;;;;;;;;5062689;28;19965;-60
2023/06/07 10:30:16;;;;;;;;;;;;;;;;;;5068763;28;19955;-61
2023/06/07 10:32:42;;;;;;;;;;;;;;;;;;5065758;28;19928;-60
2023/06/07 10:35:09;;;;;;;;;;;;;;;;;;5061340;28;19925;-61
2023/06/07 10:37:36;;;;;;;;;;;;;;;;;;5063707;28;20320;-61
2023/06/07 10:40:09;;;;;;;;;;;;;;;;;;5062720;28;20757;-61
2023/06/07 10:42:36;;;;;;;;;;;;;;;;;;5063482;28;19928;-61
2023/06/07 10:45:03;;;;;;;;;;;;;;;;;;5060928;28;20378;-60
2023/06/07 10:47:30;;;;;;;;;;;;;;;;;;5066443;28;20320;-59
2023/06/07 10:49:57;;;;;;;;;;;;;;;;;;5063303;28;19929;-60
2023/06/07 10:52:25;;;;;;;;;;;;;;;;;;5069690;28;19924;-61
2023/06/07 10:54:52;;;;;;;;;;;;;;;;;;5062214;28;19928;-64
2023/06/07 10:57:19;;;;;;;;;;;;;;;;;;5060458;28;19931;-63
2023/06/07 10:59:46;;;;;;;;;;;;;;;;;;5065047;28;19932;-64
2023/06/07 11:02:12;;;;;;;;;;;;;;;;;;5066742;28;19924;-63
2023/06/07 11:04:39;;;;;;;;;;;;;;;;;;5062117;28;19928;-64
2023/06/07 11:07:06;;;;;;;;;;;;;;;;;;5063003;28;19924;-64
2023/06/07 11:09:33;;;;;;;;;;;;;;;;;;5063230;28;20423;-65
2023/06/07 11:12:00;;;;;;;;;;;;;;;;;;5064080;28;19931;-62
2023/06/07 11:14:27;;;;;;;;;;;;;;;;;;5063283;28;19924;-63
2023/06/07 11:16:54;;;;;;;;;;;;;;;;;;5064693;28;19977;-64
2023/06/07 11:19:21;;;;;;;;;;;;;;;;;;5066369;28;19928;-64
2023/06/07 11:21:48;;;;;;;;;;;;;;;;;;5065577;28;19928;-63
2023/06/07 11:24:15;;;;;;;;;;;;;;;;;;5063103;28;19999;-64
2023/06/07 11:26:42;;;;;;;;;;;;;;;;;;5064824;28;20011;-64
2023/06/07 11:29:09;;;;;;;;;;;;;;;;;;5064220;28;19978;-65
2023/06/07 11:31:36;;;;;;;;;;;;;;;;;;5064393;28;19933;-63
2023/06/07 11:34:03;;;;;;;;;;;;;;;;;;5061133;28;20015;-63
2023/06/07 11:36:30;;;;;;;;;;;;;;;;;;5063019;28;20331;-63
2023/06/07 11:38:59;;;;;;;;;;;;;;;;;;5064448;28;19928;-65
2023/06/07 11:41:25;;;;;;;;;;;;;;;;;;5064851;28;19999;-64
2023/06/07 11:43:52;;;;;;;;;;;;;;;;;;5063674;28;19928;-64
2023/06/07 11:46:20;;;;;;;;;;;;;;;;;;5056354;28;19924;-62
2023/06/07 11:48:47;;;;;;;;;;;;;;;;;;5066633;28;20431;-64
2023/06/07 11:51:14;;;;;;;;;;;;;;;;;;5061831;28;20515;-64
2023/06/07 11:53:41;;;;;;;;;;;;;;;;;;5062552;28;19924;-63
2023/06/07 11:56:08;;;;;;;;;;;;;;;;;;5058780;28;19924;-61
2023/06/07 11:58:35;;;;;;;;;;;;;;;;;;5060703;28;19929;-62
2023/06/07 12:01:02;;;;;;;;;;;;;;;;;;5061099;28;19924;-62
2023/06/07 12:03:29;;;;;;;;;;;;;;;;;;5062647;28;19936;-62
2023/06/07 12:05:56;;;;;;;;;;;;;;;;;;5065492;28;19963;-58
2023/06/07 12:08:23;;;;;;;;;;;;;;;;;;5063278;28;19974;-58
2023/06/07 12:10:51;;;;;;;;;;;;;;;;;;5064736;28;19924;-57
2023/06/07 12:13:18;;;;;;;;;;;;;;;;;;5064966;28;19936;-59
2023/06/07 12:15:46;;;;;;;;;;;;;;;;;;5066869;28;19925;-58
2023/06/07 12:18:13;;;;;;;;;;;;;;;;;;5067448;28;19925;-59
2023/06/07 12:20:40;;;;;;;;;;;;;;;;;;5060293;28;19937;-59
2023/06/07 12:23:07;;;;;;;;;;;;;;;;;;5061814;28;20335;-58
2023/06/07 12:25:35;;;;;;;;;;;;;;;;;;5063442;28;20360;-58
2023/06/07 12:28:02;;;;;;;;;;;;;;;;;;5062185;28;19924;-61
2023/06/07 12:30:29;;;;;;;;;;;;;;;;;;5065185;28;19935;-61
2023/06/07 12:32:56;;;;;;;;;;;;;;;;;;5065337;28;19932;-61
2023/06/07 12:35:23;;;;;;;;;;;;;;;;;;5060968;28;19925;-59
2023/06/07 12:37:50;;;;;;;;;;;;;;;;;;5059868;28;20439;-61
2023/06/07 12:40:17;;;;;;;;;;;;;;;;;;5063254;28;20058;-63
2023/06/07 12:42:43;;;;;;;;;;;;;;;;;;5059682;28;19924;-64
2023/06/07 12:45:10;;;;;;;;;;;;;;;;;;5063458;28;19970;-61
2023/06/07 12:47:37;;;;;;;;;;;;;;;;;;5061696;28;19936;-62
2023/06/07 12:50:05;;;;;;;;;;;;;;;;;;5065530;28;19924;-62
2023/06/07 12:52:31;;;;;;;;;;;;;;;;;;5070229;28;20439;-64
2023/06/07 12:54:58;;;;;;;;;;;;;;;;;;5065580;28;20663;-63
2023/06/07 12:57:25;;;;;;;;;;;;;;;;;;5068751;28;20331;-64
2023/06/07 12:59:52;;;;;;;;;;;;;;;;;;5068002;28;20345;-61
2023/06/07 13:02:19;;;;;;;;;;;;;;;;;;5070488;28;19936;-63
2023/06/07 13:04:46;;;;;;;;;;;;;;;;;;5066773;28;19974;-58
2023/06/07 13:07:13;;;;;;;;;;;;;;;;;;5065479;28;19929;-59
2023/06/07 13:09:39;;;;;;;;;;;;;;;;;;5070705;28;19924;-59
2023/06/07 13:12:07;;;;;;;;;;;;;;;;;;5067362;28;19925;-58
2023/06/07 13:14:35;;;;;;;;;;;;;;;;;;5066294;28;19998;-62
2023/06/07 13:17:03;;;;;;;;;;;;;;;;;;5068904;28;21283;-61
2023/06/07 13:19:31;;;;;;;;;;;;;;;;;;5066639;28;19970;-60
2023/06/07 13:21:58;;;;;;;;;;;;;;;;;;5070003;28;19974;-61
2023/06/07 13:24:24;;;;;;;;;;;;;;;;;;5065099;28;20446;-60
2023/06/07 13:26:51;;;;;;;;;;;;;;;;;;5063937;28;19925;-62
2023/06/07 13:29:18;;;;;;;;;;;;;;;;;;5061469;28;19932;-60
2023/06/07 13:31:45;;;;;;;;;;;;;;;;;;5059138;28;20339;-66
2023/06/07 13:34:12;;;;;;;;;;;;;;;;;;5063821;28;19990;-61
2023/06/07 13:36:39;;;;;;;;;;;;;;;;;;5074512;28;19951;-60
2023/06/07 13:39:06;;;;;;;;;;;;;;;;;;5064068;28;19931;-61
2023/06/07 13:41:33;;;;;;;;;;;;;;;;;;5066430;28;19928;-61
2023/06/07 13:44:00;;;;;;;;;;;;;;;;;;5062998;28;19936;-61
2023/06/07 13:46:27;;;;;;;;;;;;;;;;;;5074039;28;19970;-61
2023/06/07 13:48:54;;;;;;;;;;;;;;;;;;5062238;28;19924;-61
2023/06/07 13:51:23;;;;;;;;;;;;;;;;;;5065789;28;19947;-61
2023/06/07 13:53:50;;;;;;;;;;;;;;;;;;5064621;28;20356;-60
2023/06/07 13:56:17;;;;;;;;;;;;;;;;;;5070377;28;19928;-60
2023/06/07 13:58:44;;;;;;;;;;;;;;;;;;5062418;28;19933;-60
2023/06/07 14:01:11;;;;;;;;;;;;;;;;;;5066760;28;19924;-61
2023/06/07 14:03:39;;;;;;;;;;;;;;;;;;5064845;28;19928;-62
2023/06/07 14:06:06;;;;;;;;;;;;;;;;;;5062309;28;19925;-63
2023/06/07 14:08:33;;;;;;;;;;;;;;;;;;5066225;28;19924;-62
2023/06/07 14:11:00;;;;;;;;;;;;;;;;;;5068307;28;20377;-62
2023/06/07 14:13:27;;;;;;;;;;;;;;;;;;5069771;28;19925;-63
2023/06/07 14:15:54;;;;;;;;;;;;;;;;;;5066366;28;19944;-62
2023/06/07 14:18:20;;;;;;;;;;;;;;;;;;5063034;28;19978;-63
2023/06/07 14:20:48;;;;;;;;;;;;;;;;;;5063462;28;19979;-63
2023/06/07 14:23:14;;;;;;;;;;;;;;;;;;5064616;28;19924;-63
2023/06/07 14:25:41;;;;;;;;;;;;;;;;;;5063868;28;19925;-63
2023/06/07 14:28:08;;;;;;;;;;;;;;;;;;5062335;28;19979;-62
2023/06/07 14:30:35;;;;;;;;;;;;;;;;;;5068162;28;19978;-61
2023/06/07 14:33:02;;;;;;;;;;;;;;;;;;5067902;28;19924;-62
2023/06/07 14:35:29;;;;;;;;;;;;;;;;;;5063920;28;19925;-60
2023/06/07 14:37:55;;;;;;;;;;;;;;;;;;5064875;28;19970;-62
2023/06/07 14:40:22;;;;;;;;;;;;;;;;;;5064906;28;19971;-59
2023/06/07 14:42:49;;;;;;;;;;;;;;;;;;5063501;28;19925;-61
2023/06/07 14:45:16;;;;;;;;;;;;;;;;;;5063081;28;19929;-60
2023/06/07 14:47:43;;;;;;;;;;;;;;;;;;5064905;28;19925;-60
2023/06/07 14:50:10;;;;;;;;;;;;;;;;;;5063235;28;19925;-63
2023/06/07 14:52:37;;;;;;;;;;;;;;;;;;5063196;28;19924;-62
2023/06/07 14:55:04;;;;;;;;;;;;;;;;;;5062843;28;19990;-63
2023/06/07 14:57:31;;;;;;;;;;;;;;;;;;5062434;28;19994;-61
2023/06/07 14:59:58;;;;;;;;;;;;;;;;;;5065338;28;19972;-63
2023/06/07 15:02:25;;;;;;;;;;;;;;;;;;5067961;28;19946;-63
2023/06/07 15:04:51;;;;;;;;;;;;;;;;;;5065439;28;19928;-63
2023/06/07 15:07:18;;;;;;;;;;;;;;;;;;5062715;28;19929;-63
2023/06/07 15:09:45;;;;;;;;;;;;;;;;;;5062175;28;19924;-62
2023/06/07 15:12:13;;;;;;;;;;;;;;;;;;5061550;28;19983;-62
2023/06/07 15:14:40;;;;;;;;;;;;;;;;;;5062168;28;19964;-63
2023/06/07 15:17:11;;;;;;;;;;;;;;;;;;5064112;28;19978;-63
2023/06/07 15:19:37;;;;;;;;;;;;;;;;;;5062698;28;20395;-62
2023/06/07 15:22:04;;;;;;;;;;;;;;;;;;5063911;28;20308;-63
2023/06/07 15:24:31;;;;;;;;;;;;;;;;;;5062056;28;20416;-63
2023/06/07 15:26:58;;;;;;;;;;;;;;;;;;5062125;28;20351;-63
2023/06/07 15:29:25;;;;;;;;;;;;;;;;;;5063654;28;20445;-62
2023/06/07 15:31:52;;;;;;;;;;;;;;;;;;5068634;28;19928;-62
2023/06/07 15:34:19;;;;;;;;;;;;;;;;;;5066100;28;19928;-63
2023/06/07 15:36:46;;;;;;;;;;;;;;;;;;5063322;28;20026;-62
2023/06/07 15:39:12;;;;;;;;;;;;;;;;;;5063154;28;19924;-63
2023/06/07 15:41:42;;;;;;;;;;;;;;;;;;5058535;28;19982;-67
2023/06/07 15:44:09;;;;;;;;;;;;;;;;;;5061176;28;20460;-63
2023/06/07 15:46:36;;;;;;;;;;;;;;;;;;5067397;28;19932;-67
2023/06/07 15:49:03;;;;;;;;;;;;;;;;;;5063958;28;19925;-66
2023/06/07 15:51:29;;;;;;;;;;;;;;;;;;5063589;28;19951;-66
2023/06/07 15:53:56;;;;;;;;;;;;;;;;;;5063488;28;19924;-66
2023/06/07 15:56:23;;;;;;;;;;;;;;;;;;5062715;28;19928;-64
2023/06/07 15:58:50;;;;;;;;;;;;;;;;;;5060852;28;19925;-64
2023/06/07 16:01:17;;;;;;;;;;;;;;;;;;5067053;28;19932;-66
2023/06/07 16:03:44;;;;;;;;;;;;;;;;;;5065216;28;19947;-64
2023/06/07 16:06:11;;;;;;;;;;;;;;;;;;5063680;28;19989;-65
2023/06/07 16:08:38;;;;;;;;;;;;;;;;;;5062725;28;20460;-67
2023/06/07 16:11:05;;;;;;;;;;;;;;;;;;5064459;28;19925;-65
2023/06/07 16:13:32;;;;;;;;;;;;;;;;;;5066085;28;19932;-66
2023/06/07 16:15:58;;;;;;;;;;;;;;;;;;5066784;28;19932;-65
2023/06/07 16:18:25;;;;;;;;;;;;;;;;;;5064820;28;19924;-64
2023/06/07 16:20:52;;;;;;;;;;;;;;;;;;5057328;28;20035;-65
2023/06/07 16:23:19;;;;;;;;;;;;;;;;;;5062695;28;20380;-64
2023/06/07 16:25:46;;;;;;;;;;;;;;;;;;5061823;28;20377;-65
2023/06/07 16:28:15;;;;;;;;;;;;;;;;;;5066886;28;20523;-65
2023/06/07 16:30:42;;;;;;;;;;;;;;;;;;5068515;28;19928;-65
2023/06/07 16:33:09;;;;;;;;;;;;;;;;;;5069964;28;19928;-65
2023/06/07 16:35:36;;;;;;;;;;;;;;;;;;5066104;28;19928;-65
2023/06/07 16:38:03;;;;;;;;;;;;;;;;;;5065877;28;19928;-65
2023/06/07 16:40:29;;;;;;;;;;;;;;;;;;5071789;28;19924;-64
2023/06/07 16:42:56;;;;;;;;;;;;;;;;;;5065947;28;19931;-65
2023/06/07 16:45:23;;;;;;;;;;;;;;;;;;5065044;28;19929;-65